sensor_id;sensor_type;location;lat;lon;timestamp;pressure;altitude;pressure_sealevel;temperature;humidity
6224;BME280;3145;42.726;23.342;2022-09-20T00:00:25;95450.06;;;11.37;79.10
6224;BME280;3145;42.726;23.342;2022-09-20T00:02:52;95440.84;;;11.33;78.50
6224;BME280;3145;42.726;23.342;2022-09-20T00:05:19;95438.31;;;11.40;79.44
6224;BME280;3145;42.726;23.342;2022-09-20T00:07:46;95436.84;;;11.37;79.38
6224;BME280;3145;42.726;23.342;2022-09-20T00:10:14;95441.22;;;11.30;79.03
6224;BME280;3145;42.726;23.342;2022-09-20T00:12:41;95444.28;;;11.19;79.00
6224;BME280;3145;42.726;23.342;2022-09-20T00:15:08;95445.31;;;11.18;79.09
6224;BME280;3145;42.726;23.342;2022-09-20T00:17:35;95450.31;;;11.13;79.47
6224;BME280;3145;42.726;23.342;2022-09-20T00:20:02;95455.13;;;11.10;79.14
6224;BME280;3145;42.726;23.342;2022-09-20T00:22:29;95447.22;;;10.87;80.23
6224;BME280;3145;42.726;23.342;2022-09-20T00:24:56;95449.03;;;10.87;80.71
6224;BME280;3145;42.726;23.342;2022-09-20T00:27:24;95454.16;;;10.88;80.60
6224;BME280;3145;42.726;23.342;2022-09-20T00:29:51;95449.75;;;10.81;80.64
6224;BME280;3145;42.726;23.342;2022-09-20T00:32:18;95461.81;;;10.83;80.97
6224;BME280;3145;42.726;23.342;2022-09-20T00:34:45;95452.88;;;10.84;80.64
6224;BME280;3145;42.726;23.342;2022-09-20T00:37:29;95444.38;;;10.74;81.13
6224;BME280;3145;42.726;23.342;2022-09-20T00:39:56;95443.03;;;10.78;80.80
6224;BME280;3145;42.726;23.342;2022-09-20T00:42:27;95438.50;;;10.64;81.38
6224;BME280;3145;42.726;23.342;2022-09-20T00:44:56;95447.25;;;10.65;81.38
6224;BME280;3145;42.726;23.342;2022-09-20T00:47:28;95452.44;;;10.58;82.14
6224;BME280;3145;42.726;23.342;2022-09-20T00:50:00;95454.28;;;10.50;82.42
6224;BME280;3145;42.726;23.342;2022-09-20T00:52:31;95456.13;;;10.49;82.59
6224;BME280;3145;42.726;23.342;2022-09-20T00:54:59;95463.03;;;10.50;82.85
6224;BME280;3145;42.726;23.342;2022-09-20T00:57:30;95463.69;;;10.52;83.31
6224;BME280;3145;42.726;23.342;2022-09-20T01:00:01;95463.69;;;10.52;82.98
6224;BME280;3145;42.726;23.342;2022-09-20T01:02:30;95452.19;;;10.45;82.98
6224;BME280;3145;42.726;23.342;2022-09-20T01:04:58;95443.59;;;10.43;83.67
6224;BME280;3145;42.726;23.342;2022-09-20T01:07:26;95455.47;;;10.47;83.35
6224;BME280;3145;42.726;23.342;2022-09-20T01:09:53;95433.56;;;10.39;83.54
6224;BME280;3145;42.726;23.342;2022-09-20T01:12:23;95448.22;;;10.49;83.89
6224;BME280;3145;42.726;23.342;2022-09-20T01:14:53;95417.13;;;10.29;83.09
6224;BME280;3145;42.726;23.342;2022-09-20T01:17:22;95436.19;;;10.39;83.64
6224;BME280;3145;42.726;23.342;2022-09-20T01:20:02;95444.97;;;10.39;84.01
6224;BME280;3145;42.726;23.342;2022-09-20T01:22:40;95452.72;;;10.41;83.87
6224;BME280;3145;42.726;23.342;2022-09-20T01:25:14;95447.44;;;10.41;83.47
6224;BME280;3145;42.726;23.342;2022-09-20T01:27:45;95448.25;;;10.41;83.96
6224;BME280;3145;42.726;23.342;2022-09-20T01:30:15;95456.03;;;10.35;84.19
6224;BME280;3145;42.726;23.342;2022-09-20T01:32:51;95444.56;;;10.28;84.39
6224;BME280;3145;42.726;23.342;2022-09-20T01:35:24;95443.38;;;10.30;84.40
6224;BME280;3145;42.726;23.342;2022-09-20T01:38:02;95435.97;;;10.26;84.90
6224;BME280;3145;42.726;23.342;2022-09-20T01:40:36;95438.44;;;10.27;84.97
6224;BME280;3145;42.726;23.342;2022-09-20T01:43:14;95422.94;;;10.24;84.55
6224;BME280;3145;42.726;23.342;2022-09-20T01:45:45;95433.84;;;10.21;84.58
6224;BME280;3145;42.726;23.342;2022-09-20T01:48:26;95437.69;;;10.11;85.06
6224;BME280;3145;42.726;23.342;2022-09-20T01:54:24;95444.50;;;10.05;85.54
6224;BME280;3145;42.726;23.342;2022-09-20T01:57:26;95453.25;;;9.98;85.92
6224;BME280;3145;42.726;23.342;2022-09-20T02:00:11;95451.06;;;9.71;86.65
6224;BME280;3145;42.726;23.342;2022-09-20T02:05:46;95447.59;;;9.78;87.06
6224;BME280;3145;42.726;23.342;2022-09-20T02:08:32;95444.97;;;9.70;87.55
6224;BME280;3145;42.726;23.342;2022-09-20T02:11:12;95423.75;;;9.64;87.78
6224;BME280;3145;42.726;23.342;2022-09-20T02:13:57;95398.91;;;9.50;87.70
6224;BME280;3145;42.726;23.342;2022-09-20T02:16:47;95425.88;;;9.60;88.04
6224;BME280;3145;42.726;23.342;2022-09-20T02:19:45;95434.50;;;9.54;88.76
6224;BME280;3145;42.726;23.342;2022-09-20T02:22:38;95435.28;;;9.54;88.58
6224;BME280;3145;42.726;23.342;2022-09-20T02:25:17;95431.34;;;9.50;88.49
6224;BME280;3145;42.726;23.342;2022-09-20T02:27:56;95427.25;;;9.48;89.17
6224;BME280;3145;42.726;23.342;2022-09-20T02:30:34;95428.88;;;9.49;88.36
6224;BME280;3145;42.726;23.342;2022-09-20T02:33:14;95431.19;;;9.52;88.34
6224;BME280;3145;42.726;23.342;2022-09-20T02:35:58;95423.94;;;9.54;88.07
6224;BME280;3145;42.726;23.342;2022-09-20T02:38:41;95427.91;;;9.50;87.26
6224;BME280;3145;42.726;23.342;2022-09-20T02:41:27;95433.50;;;9.47;87.10
6224;BME280;3145;42.726;23.342;2022-09-20T02:44:02;95436.50;;;9.44;86.57
6224;BME280;3145;42.726;23.342;2022-09-20T02:46:36;95429.88;;;9.48;86.85
6224;BME280;3145;42.726;23.342;2022-09-20T02:49:12;95433.50;;;9.47;86.71
6224;BME280;3145;42.726;23.342;2022-09-20T02:51:48;95447.69;;;9.46;86.89
6224;BME280;3145;42.726;23.342;2022-09-20T02:54:24;95432.22;;;9.43;87.03
6224;BME280;3145;42.726;23.342;2022-09-20T02:56:59;95437.81;;;9.40;87.67
6224;BME280;3145;42.726;23.342;2022-09-20T02:59:32;95436.81;;;9.41;87.46
6224;BME280;3145;42.726;23.342;2022-09-20T03:02:08;95436.84;;;9.33;87.57
6224;BME280;3145;42.726;23.342;2022-09-20T03:04:54;95437.53;;;9.27;88.26
6224;BME280;3145;42.726;23.342;2022-09-20T03:07:32;95437.88;;;9.24;88.36
6224;BME280;3145;42.726;23.342;2022-09-20T03:10:10;95449.38;;;9.31;88.39
6224;BME280;3145;42.726;23.342;2022-09-20T03:12:48;95449.38;;;9.31;88.29
6224;BME280;3145;42.726;23.342;2022-09-20T03:15:26;95441.81;;;9.28;88.50
6224;BME280;3145;42.726;23.342;2022-09-20T03:18:06;95453.34;;;9.27;88.21
6224;BME280;3145;42.726;23.342;2022-09-20T03:20:40;95455.81;;;9.28;88.55
6224;BME280;3145;42.726;23.342;2022-09-20T03:23:20;95451.72;;;9.26;88.29
6224;BME280;3145;42.726;23.342;2022-09-20T03:25:54;95439.88;;;9.14;88.51
6224;BME280;3145;42.726;23.342;2022-09-20T03:28:36;95446.44;;;9.26;88.45
6224;BME280;3145;42.726;23.342;2022-09-20T03:31:22;95459.09;;;9.30;88.24
6224;BME280;3145;42.726;23.342;2022-09-20T03:34:01;95455.00;;;9.28;88.08
6224;BME280;3145;42.726;23.342;2022-09-20T03:36:50;95453.19;;;9.20;88.22
6224;BME280;3145;42.726;23.342;2022-09-20T03:39:39;95448.09;;;9.19;88.83
6224;BME280;3145;42.726;23.342;2022-09-20T03:42:17;95451.06;;;9.16;88.11
6224;BME280;3145;42.726;23.342;2022-09-20T03:45:00;95464.25;;;9.16;88.27
6224;BME280;3145;42.726;23.342;2022-09-20T03:47:47;95458.97;;;9.16;88.47
6224;BME280;3145;42.726;23.342;2022-09-20T03:50:31;95430.00;;;9.00;88.38
6224;BME280;3145;42.726;23.342;2022-09-20T03:56:27;95468.19;;;9.12;88.09
6224;BME280;3145;42.726;23.342;2022-09-20T03:59:12;95476.44;;;9.09;88.15
6224;BME280;3145;42.726;23.342;2022-09-20T04:01:59;95478.56;;;9.13;88.12
6224;BME280;3145;42.726;23.342;2022-09-20T04:04:37;95482.38;;;9.11;87.45
6224;BME280;3145;42.726;23.342;2022-09-20T04:07:15;95475.78;;;9.15;87.38
6224;BME280;3145;42.726;23.342;2022-09-20T04:09:57;95467.56;;;9.10;87.75
6224;BME280;3145;42.726;23.342;2022-09-20T04:12:38;95482.84;;;9.06;87.43
6224;BME280;3145;42.726;23.342;2022-09-20T04:15:19;95490.28;;;9.11;87.53
6224;BME280;3145;42.726;23.342;2022-09-20T04:17:54;95489.44;;;9.10;87.57
6224;BME280;3145;42.726;23.342;2022-09-20T04:20:31;95493.91;;;9.10;87.47
6224;BME280;3145;42.726;23.342;2022-09-20T04:23:06;95498.81;;;9.13;87.48
6224;BME280;3145;42.726;23.342;2022-09-20T04:25:40;95499.50;;;9.23;87.77
6224;BME280;3145;42.726;23.342;2022-09-20T04:28:11;95501.25;;;9.46;87.36
6224;BME280;3145;42.726;23.342;2022-09-20T04:30:40;95502.97;;;9.86;87.65
6224;BME280;3145;42.726;23.342;2022-09-20T04:33:14;95500.50;;;10.23;85.87
6224;BME280;3145;42.726;23.342;2022-09-20T04:35:46;95506.47;;;10.25;85.64
6224;BME280;3145;42.726;23.342;2022-09-20T04:38:36;95495.75;;;10.72;84.38
6224;BME280;3145;42.726;23.342;2022-09-20T04:41:31;95503.75;;;11.23;82.80
6224;BME280;3145;42.726;23.342;2022-09-20T04:44:30;95510.19;;;11.80;80.44
6224;BME280;3145;42.726;23.342;2022-09-20T04:47:28;95504.75;;;12.32;78.33
6224;BME280;3145;42.726;23.342;2022-09-20T04:50:32;95515.13;;;12.83;75.74
6224;BME280;3145;42.726;23.342;2022-09-20T04:53:21;95518.19;;;13.43;72.87
6224;BME280;3145;42.726;23.342;2022-09-20T04:55:59;95513.50;;;13.73;70.86
6224;BME280;3145;42.726;23.342;2022-09-20T04:58:47;95509.94;;;13.93;67.39
6224;BME280;3145;42.726;23.342;2022-09-20T05:04:38;95514.38;;;14.55;65.03
6224;BME280;3145;42.726;23.342;2022-09-20T05:07:40;95511.94;;;14.60;64.16
6224;BME280;3145;42.726;23.342;2022-09-20T05:10:34;95516.34;;;15.00;63.00
6224;BME280;3145;42.726;23.342;2022-09-20T05:13:17;95518.25;;;15.32;61.31
6224;BME280;3145;42.726;23.342;2022-09-20T05:15:55;95520.72;;;15.59;60.03
6224;BME280;3145;42.726;23.342;2022-09-20T05:21:44;95522.31;;;15.99;56.13
6224;BME280;3145;42.726;23.342;2022-09-20T05:24:23;95522.13;;;16.14;56.64
6224;BME280;3145;42.726;23.342;2022-09-20T05:27:04;95516.69;;;16.40;56.44
6224;BME280;3145;42.726;23.342;2022-09-20T05:29:39;95525.06;;;16.63;53.98
6224;BME280;3145;42.726;23.342;2022-09-20T05:32:17;95520.31;;;16.71;53.31
6224;BME280;3145;42.726;23.342;2022-09-20T05:34:53;95523.56;;;16.80;52.95
6224;BME280;3145;42.726;23.342;2022-09-20T05:37:40;95517.63;;;16.78;53.10
6224;BME280;3145;42.726;23.342;2022-09-20T05:40:18;95525.63;;;16.78;53.18
6224;BME280;3145;42.726;23.342;2022-09-20T05:42:53;95513.00;;;16.98;52.64
6224;BME280;3145;42.726;23.342;2022-09-20T05:48:22;95522.25;;;17.26;51.00
6224;BME280;3145;42.726;23.342;2022-09-20T05:50:56;95525.34;;;17.61;50.99
6224;BME280;3145;42.726;23.342;2022-09-20T05:56:34;95524.16;;;18.24;48.27
6224;BME280;3145;42.726;23.342;2022-09-20T05:59:18;95517.91;;;18.12;48.24
6224;BME280;3145;42.726;23.342;2022-09-20T06:02:09;95521.16;;;18.14;47.98
6224;BME280;3145;42.726;23.342;2022-09-20T06:04:51;95517.50;;;18.51;47.27
6224;BME280;3145;42.726;23.342;2022-09-20T06:07:33;95529.97;;;18.75;46.44
6224;BME280;3145;42.726;23.342;2022-09-20T06:10:16;95533.53;;;18.87;46.20
6224;BME280;3145;42.726;23.342;2022-09-20T06:12:52;95533.47;;;18.76;46.28
6224;BME280;3145;42.726;23.342;2022-09-20T06:15:26;95537.13;;;18.81;46.36
6224;BME280;3145;42.726;23.342;2022-09-20T06:18:12;95536.81;;;18.89;45.23
6224;BME280;3145;42.726;23.342;2022-09-20T06:20:49;95526.94;;;18.90;45.33
6224;BME280;3145;42.726;23.342;2022-09-20T06:23:17;95536.94;;;18.94;44.74
6224;BME280;3145;42.726;23.342;2022-09-20T06:25:49;95532.94;;;18.67;44.69
6224;BME280;3145;42.726;23.342;2022-09-20T06:28:22;95532.50;;;18.70;45.47
6224;BME280;3145;42.726;23.342;2022-09-20T06:30:51;95524.47;;;18.88;45.37
6224;BME280;3145;42.726;23.342;2022-09-20T06:33:20;95528.28;;;19.28;44.60
6224;BME280;3145;42.726;23.342;2022-09-20T06:35:53;95527.53;;;19.51;43.76
6224;BME280;3145;42.726;23.342;2022-09-20T06:38:34;95529.66;;;19.60;43.12
6224;BME280;3145;42.726;23.342;2022-09-20T06:41:21;95522.06;;;19.57;42.94
6224;BME280;3145;42.726;23.342;2022-09-20T06:43:55;95523.13;;;19.56;43.52
6224;BME280;3145;42.726;23.342;2022-09-20T06:46:25;95502.78;;;19.37;42.87
6224;BME280;3145;42.726;23.342;2022-09-20T06:48:52;95529.44;;;19.73;41.93
6224;BME280;3145;42.726;23.342;2022-09-20T06:51:21;95527.84;;;19.95;41.83
6224;BME280;3145;42.726;23.342;2022-09-20T06:53:49;95537.22;;;20.27;41.18
6224;BME280;3145;42.726;23.342;2022-09-20T06:56:18;95538.16;;;20.44;40.74
6224;BME280;3145;42.726;23.342;2022-09-20T06:58:46;95536.28;;;20.10;41.93
6224;BME280;3145;42.726;23.342;2022-09-20T07:01:13;95537.91;;;20.57;40.75
6224;BME280;3145;42.726;23.342;2022-09-20T07:03:40;95540.91;;;20.72;40.33
6224;BME280;3145;42.726;23.342;2022-09-20T07:06:07;95545.59;;;20.42;40.82
6224;BME280;3145;42.726;23.342;2022-09-20T07:08:36;95522.03;;;20.44;40.24
6224;BME280;3145;42.726;23.342;2022-09-20T07:11:04;95547.97;;;20.50;40.06
6224;BME280;3145;42.726;23.342;2022-09-20T07:13:32;95550.16;;;20.65;40.01
6224;BME280;3145;42.726;23.342;2022-09-20T07:16:00;95539.75;;;20.91;39.64
6224;BME280;3145;42.726;23.342;2022-09-20T07:18:28;95553.38;;;20.90;39.18
6224;BME280;3145;42.726;23.342;2022-09-20T07:20:55;95551.03;;;21.05;38.92
6224;BME280;3145;42.726;23.342;2022-09-20T07:23:23;95553.38;;;21.29;39.18
6224;BME280;3145;42.726;23.342;2022-09-20T07:25:51;95555.22;;;21.40;39.10
6224;BME280;3145;42.726;23.342;2022-09-20T07:28:18;95547.13;;;21.68;38.42
6224;BME280;3145;42.726;23.342;2022-09-20T07:30:45;95554.19;;;21.86;37.53
6224;BME280;3145;42.726;23.342;2022-09-20T07:33:12;95559.19;;;21.66;37.39
6224;BME280;3145;42.726;23.342;2022-09-20T07:35:44;95546.28;;;21.79;37.09
6224;BME280;3145;42.726;23.342;2022-09-20T07:38:11;95516.09;;;21.77;37.11
6224;BME280;3145;42.726;23.342;2022-09-20T07:40:38;95534.16;;;21.93;36.04
6224;BME280;3145;42.726;23.342;2022-09-20T07:43:06;95540.50;;;21.87;36.60
6224;BME280;3145;42.726;23.342;2022-09-20T07:45:35;95541.22;;;21.55;36.81
6224;BME280;3145;42.726;23.342;2022-09-20T07:48:04;95537.75;;;21.26;37.38
6224;BME280;3145;42.726;23.342;2022-09-20T07:50:31;95536.41;;;21.40;37.73
6224;BME280;3145;42.726;23.342;2022-09-20T07:52:58;95534.66;;;21.62;37.59
6224;BME280;3145;42.726;23.342;2022-09-20T07:55:25;95530.81;;;21.58;36.63
6224;BME280;3145;42.726;23.342;2022-09-20T07:57:52;95530.41;;;21.22;36.86
6224;BME280;3145;42.726;23.342;2022-09-20T08:00:21;95547.25;;;21.17;36.88
6224;BME280;3145;42.726;23.342;2022-09-20T08:02:56;95528.81;;;21.37;37.85
6224;BME280;3145;42.726;23.342;2022-09-20T08:05:23;95528.44;;;21.62;36.77
6224;BME280;3145;42.726;23.342;2022-09-20T08:07:50;95520.59;;;21.88;36.12
6224;BME280;3145;42.726;23.342;2022-09-20T08:10:17;95536.59;;;21.78;35.17
6224;BME280;3145;42.726;23.342;2022-09-20T08:12:43;95532.75;;;21.46;35.68
6224;BME280;3145;42.726;23.342;2022-09-20T08:15:11;95533.63;;;21.35;36.54
6224;BME280;3145;42.726;23.342;2022-09-20T08:17:39;95480.63;;;20.91;36.30
6224;BME280;3145;42.726;23.342;2022-09-20T08:20:07;95527.59;;;20.77;36.53
6224;BME280;3145;42.726;23.342;2022-09-20T08:22:34;95535.81;;;20.36;36.78
6224;BME280;3145;42.726;23.342;2022-09-20T08:25:05;95538.31;;;19.85;38.14
6224;BME280;3145;42.726;23.342;2022-09-20T08:27:32;95535.47;;;20.21;36.67
6224;BME280;3145;42.726;23.342;2022-09-20T08:29:59;95532.53;;;20.57;37.58
6224;BME280;3145;42.726;23.342;2022-09-20T08:32:25;95531.59;;;20.63;35.88
6224;BME280;3145;42.726;23.342;2022-09-20T08:34:53;95527.53;;;20.38;35.85
6224;BME280;3145;42.726;23.342;2022-09-20T08:37:20;95518.41;;;20.04;35.94
6224;BME280;3145;42.726;23.342;2022-09-20T08:39:47;95521.53;;;20.01;36.32
6224;BME280;3145;42.726;23.342;2022-09-20T08:42:23;95520.88;;;20.17;36.34
6224;BME280;3145;42.726;23.342;2022-09-20T08:44:55;95505.22;;;20.37;36.62
6224;BME280;3145;42.726;23.342;2022-09-20T08:47:26;95503.81;;;20.00;37.02
6224;BME280;3145;42.726;23.342;2022-09-20T08:49:56;95516.13;;;19.55;37.00
6224;BME280;3145;42.726;23.342;2022-09-20T08:52:27;95501.94;;;19.07;37.61
6224;BME280;3145;42.726;23.342;2022-09-20T08:54:56;95494.06;;;19.42;37.75
6224;BME280;3145;42.726;23.342;2022-09-20T08:57:27;95505.06;;;19.63;36.86
6224;BME280;3145;42.726;23.342;2022-09-20T08:59:57;95501.38;;;19.87;36.62
6224;BME280;3145;42.726;23.342;2022-09-20T09:02:23;95496.94;;;20.39;36.80
6224;BME280;3145;42.726;23.342;2022-09-20T09:04:50;95502.91;;;21.03;33.88
6224;BME280;3145;42.726;23.342;2022-09-20T09:07:20;95485.31;;;21.40;33.75
6224;BME280;3145;42.726;23.342;2022-09-20T09:09:49;95490.59;;;21.35;32.89
6224;BME280;3145;42.726;23.342;2022-09-20T09:12:20;95483.06;;;21.21;33.92
6224;BME280;3145;42.726;23.342;2022-09-20T09:14:50;95480.50;;;20.86;34.67
6224;BME280;3145;42.726;23.342;2022-09-20T09:17:21;95479.09;;;20.95;33.63
6224;BME280;3145;42.726;23.342;2022-09-20T09:19:49;95473.25;;;20.47;34.12
6224;BME280;3145;42.726;23.342;2022-09-20T09:22:20;95468.34;;;20.44;33.77
6224;BME280;3145;42.726;23.342;2022-09-20T09:25:11;95471.13;;;20.49;35.06
6224;BME280;3145;42.726;23.342;2022-09-20T09:27:52;95467.09;;;20.01;34.53
6224;BME280;3145;42.726;23.342;2022-09-20T09:30:22;95459.91;;;19.37;35.75
6224;BME280;3145;42.726;23.342;2022-09-20T09:32:50;95447.19;;;19.03;36.67
6224;BME280;3145;42.726;23.342;2022-09-20T09:35:27;95443.28;;;19.17;37.33
6224;BME280;3145;42.726;23.342;2022-09-20T09:37:58;95451.97;;;19.42;35.74
6224;BME280;3145;42.726;23.342;2022-09-20T09:40:26;95451.19;;;19.65;36.79
6224;BME280;3145;42.726;23.342;2022-09-20T09:42:55;95448.16;;;19.96;35.80
6224;BME280;3145;42.726;23.342;2022-09-20T09:45:26;95454.84;;;20.05;34.36
6224;BME280;3145;42.726;23.342;2022-09-20T09:47:53;95454.81;;;20.39;35.10
6224;BME280;3145;42.726;23.342;2022-09-20T09:50:22;95448.50;;;20.85;33.11
6224;BME280;3145;42.726;23.342;2022-09-20T09:53:12;95445.00;;;21.12;33.17
6224;BME280;3145;42.726;23.342;2022-09-20T09:55:55;95445.47;;;21.09;33.86
6224;BME280;3145;42.726;23.342;2022-09-20T09:58:36;95453.22;;;21.50;33.02
6224;BME280;3145;42.726;23.342;2022-09-20T10:01:10;95449.88;;;21.60;31.63
6224;BME280;3145;42.726;23.342;2022-09-20T10:03:51;95447.97;;;21.27;33.25
6224;BME280;3145;42.726;23.342;2022-09-20T10:06:25;95444.91;;;20.79;35.04
6224;BME280;3145;42.726;23.342;2022-09-20T10:09:18;95443.69;;;20.98;34.45
6224;BME280;3145;42.726;23.342;2022-09-20T10:12:11;95453.84;;;20.57;35.29
6224;BME280;3145;42.726;23.342;2022-09-20T10:14:55;95448.28;;;20.24;34.89
6224;BME280;3145;42.726;23.342;2022-09-20T10:17:36;95415.75;;;19.74;35.75
6224;BME280;3145;42.726;23.342;2022-09-20T10:20:20;95437.81;;;19.76;36.40
6224;BME280;3145;42.726;23.342;2022-09-20T10:22:59;95408.41;;;19.81;35.86
6224;BME280;3145;42.726;23.342;2022-09-20T10:25:38;95427.19;;;20.04;34.87
6224;BME280;3145;42.726;23.342;2022-09-20T10:28:20;95430.09;;;19.45;35.12
6224;BME280;3145;42.726;23.342;2022-09-20T10:30:58;95430.75;;;19.29;36.63
6224;BME280;3145;42.726;23.342;2022-09-20T10:33:34;95431.75;;;18.87;37.85
6224;BME280;3145;42.726;23.342;2022-09-20T10:36:11;95425.63;;;18.98;38.00
6224;BME280;3145;42.726;23.342;2022-09-20T10:38:43;95426.03;;;19.13;37.79
6224;BME280;3145;42.726;23.342;2022-09-20T10:41:34;95438.25;;;19.50;36.33
6224;BME280;3145;42.726;23.342;2022-09-20T10:44:34;95428.34;;;19.85;35.43
6224;BME280;3145;42.726;23.342;2022-09-20T10:47:09;95430.78;;;19.98;36.04
6224;BME280;3145;42.726;23.342;2022-09-20T10:49:41;95428.00;;;19.93;34.94
6224;BME280;3145;42.726;23.342;2022-09-20T10:52:21;95421.31;;;20.42;34.81
6224;BME280;3145;42.726;23.342;2022-09-20T10:55:02;95425.72;;;20.48;35.68
6224;BME280;3145;42.726;23.342;2022-09-20T11:00:41;95422.31;;;20.92;34.89
6224;BME280;3145;42.726;23.342;2022-09-20T11:03:19;95413.56;;;20.57;35.20
6224;BME280;3145;42.726;23.342;2022-09-20T11:06:00;95417.69;;;20.36;34.92
6224;BME280;3145;42.726;23.342;2022-09-20T11:08:33;95419.13;;;20.67;33.97
6224;BME280;3145;42.726;23.342;2022-09-20T11:11:07;95413.19;;;20.53;34.48
6224;BME280;3145;42.726;23.342;2022-09-20T11:13:41;95413.69;;;20.50;33.42
6224;BME280;3145;42.726;23.342;2022-09-20T11:16:14;95406.38;;;20.34;34.02
6224;BME280;3145;42.726;23.342;2022-09-20T11:18:45;95408.81;;;20.47;33.52
6224;BME280;3145;42.726;23.342;2022-09-20T11:21:19;95407.69;;;20.20;33.49
6224;BME280;3145;42.726;23.342;2022-09-20T11:23:51;95406.34;;;20.46;32.99
6224;BME280;3145;42.726;23.342;2022-09-20T11:26:25;95416.81;;;20.19;33.09
6224;BME280;3145;42.726;23.342;2022-09-20T11:29:02;95413.94;;;20.37;32.88
6224;BME280;3145;42.726;23.342;2022-09-20T11:31:34;95413.19;;;20.53;33.04
6224;BME280;3145;42.726;23.342;2022-09-20T11:34:09;95409.66;;;20.64;32.86
6224;BME280;3145;42.726;23.342;2022-09-20T11:36:42;95405.75;;;20.55;33.67
6224;BME280;3145;42.726;23.342;2022-09-20T11:39:19;95405.84;;;20.60;32.32
6224;BME280;3145;42.726;23.342;2022-09-20T11:41:49;95413.34;;;20.47;32.43
6224;BME280;3145;42.726;23.342;2022-09-20T11:44:19;95407.59;;;19.92;32.70
6224;BME280;3145;42.726;23.342;2022-09-20T11:46:51;95397.94;;;19.68;34.20
6224;BME280;3145;42.726;23.342;2022-09-20T11:49:23;95396.06;;;19.80;34.92
6224;BME280;3145;42.726;23.342;2022-09-20T11:52:19;95397.66;;;20.27;33.63
6224;BME280;3145;42.726;23.342;2022-09-20T11:55:16;95390.25;;;20.34;32.88
6224;BME280;3145;42.726;23.342;2022-09-20T11:58:00;95384.72;;;20.52;32.89
6224;BME280;3145;42.726;23.342;2022-09-20T12:00:30;95367.31;;;20.55;33.11
6224;BME280;3145;42.726;23.342;2022-09-20T12:02:59;95368.16;;;20.55;34.11
6224;BME280;3145;42.726;23.342;2022-09-20T12:05:31;95373.31;;;20.45;33.19
6224;BME280;3145;42.726;23.342;2022-09-20T12:08:01;95362.91;;;19.86;34.04
6224;BME280;3145;42.726;23.342;2022-09-20T12:10:31;95384.38;;;20.21;34.69
6224;BME280;3145;42.726;23.342;2022-09-20T12:13:01;95379.81;;;20.49;33.56
6224;BME280;3145;42.726;23.342;2022-09-20T12:15:31;95372.75;;;20.71;32.70
6224;BME280;3145;42.726;23.342;2022-09-20T12:18:29;95368.22;;;20.88;32.28
6224;BME280;3145;42.726;23.342;2022-09-20T12:21:08;95361.00;;;21.05;33.07
6224;BME280;3145;42.726;23.342;2022-09-20T12:24:19;95381.09;;;20.86;32.89
6224;BME280;3145;42.726;23.342;2022-09-20T12:26:48;95379.75;;;20.44;32.61
6224;BME280;3145;42.726;23.342;2022-09-20T12:32:52;95376.56;;;20.19;34.26
6224;BME280;3145;42.726;23.342;2022-09-20T12:35:57;95380.66;;;19.64;34.65
6224;BME280;3145;42.726;23.342;2022-09-20T12:38:33;95379.66;;;19.01;35.65
6224;BME280;3145;42.726;23.342;2022-09-20T12:41:08;95372.41;;;19.31;35.65
6224;BME280;3145;42.726;23.342;2022-09-20T12:43:38;95373.72;;;19.11;35.58
6224;BME280;3145;42.726;23.342;2022-09-20T12:46:20;95377.63;;;19.26;36.34
6224;BME280;3145;42.726;23.342;2022-09-20T12:48:48;95375.25;;;19.18;35.33
6224;BME280;3145;42.726;23.342;2022-09-20T12:51:19;95368.38;;;19.11;35.64
6224;BME280;3145;42.726;23.342;2022-09-20T12:54:03;95380.91;;;19.28;34.62
6224;BME280;3145;42.726;23.342;2022-09-20T12:56:34;95360.00;;;19.19;35.40
6224;BME280;3145;42.726;23.342;2022-09-20T12:59:02;95364.66;;;19.23;34.73
6224;BME280;3145;42.726;23.342;2022-09-20T13:01:38;95362.97;;;19.40;34.62
6224;BME280;3145;42.726;23.342;2022-09-20T13:07:38;95366.91;;;19.26;34.79
6224;BME280;3145;42.726;23.342;2022-09-20T13:10:17;95366.91;;;19.26;34.22
6224;BME280;3145;42.726;23.342;2022-09-20T13:12:46;95347.56;;;19.24;34.07
6224;BME280;3145;42.726;23.342;2022-09-20T13:15:16;95354.41;;;19.20;34.17
6224;BME280;3145;42.726;23.342;2022-09-20T13:17:45;95366.16;;;19.19;34.19
6224;BME280;3145;42.726;23.342;2022-09-20T13:20:18;95357.53;;;19.06;34.21
6224;BME280;3145;42.726;23.342;2022-09-20T13:22:48;95357.75;;;19.04;35.10
6224;BME280;3145;42.726;23.342;2022-09-20T13:25:17;95359.22;;;18.89;34.63
6224;BME280;3145;42.726;23.342;2022-09-20T13:27:49;95345.81;;;18.77;35.19
6224;BME280;3145;42.726;23.342;2022-09-20T13:30:18;95356.97;;;18.74;34.25
6224;BME280;3145;42.726;23.342;2022-09-20T13:32:45;95348.38;;;18.72;34.51
6224;BME280;3145;42.726;23.342;2022-09-20T13:35:14;95353.75;;;18.95;34.91
6224;BME280;3145;42.726;23.342;2022-09-20T13:37:49;95347.84;;;18.93;34.07
6224;BME280;3145;42.726;23.342;2022-09-20T13:40:18;95359.72;;;18.97;33.88
6224;BME280;3145;42.726;23.342;2022-09-20T13:42:45;95357.63;;;18.99;33.84
6224;BME280;3145;42.726;23.342;2022-09-20T13:45:14;95349.13;;;18.91;34.52
6224;BME280;3145;42.726;23.342;2022-09-20T13:47:42;95362.72;;;18.78;34.50
6224;BME280;3145;42.726;23.342;2022-09-20T13:50:17;95350.22;;;18.72;34.75
6224;BME280;3145;42.726;23.342;2022-09-20T13:52:49;95361.88;;;18.77;35.32
6224;BME280;3145;42.726;23.342;2022-09-20T13:55:27;95342.41;;;18.59;35.11
6224;BME280;3145;42.726;23.342;2022-09-20T13:57:56;95354.63;;;18.66;35.24
6224;BME280;3145;42.726;23.342;2022-09-20T14:00:24;95350.84;;;18.44;35.96
6224;BME280;3145;42.726;23.342;2022-09-20T14:02:52;95349.47;;;18.53;36.25
6224;BME280;3145;42.726;23.342;2022-09-20T14:05:23;95343.25;;;18.23;36.72
6224;BME280;3145;42.726;23.342;2022-09-20T14:07:52;95340.34;;;18.25;37.18
6224;BME280;3145;42.726;23.342;2022-09-20T14:10:29;95345.63;;;18.31;37.94
6224;BME280;3145;42.726;23.342;2022-09-20T14:12:57;95341.47;;;18.35;37.71
6224;BME280;3145;42.726;23.342;2022-09-20T14:15:28;95347.28;;;18.32;37.54
6224;BME280;3145;42.726;23.342;2022-09-20T14:17:57;95347.50;;;18.31;37.74
6224;BME280;3145;42.726;23.342;2022-09-20T14:20:25;95346.66;;;18.30;37.78
6224;BME280;3145;42.726;23.342;2022-09-20T14:22:53;95345.06;;;18.11;38.44
6224;BME280;3145;42.726;23.342;2022-09-20T14:25:21;95351.75;;;18.02;39.71